Terminal Aerodrome Forecast
Issued by NWS

Home | Current Version | Previous Version | Text Only | Print | Product List | Glossary On
Versions: 1 2 3 4 5 6 7 8 9 10 11 12 13 14 15 16 17 18 19 20 21 22 23 24 25
000
FTUS43 KGRB 170500
TAFMTW
TAF
KMTW 170535Z 1706/1806 06005KT P6SM SCT025 BKN050
     FM170800 03005KT 6SM BR SCT012 BKN024
      TEMPO 1709/1712 3SM BR BKN010
     FM171200 04007KT 6SM BR BKN015
     FM171600 06009KT P6SM SCT030
     FM180200 02003KT P6SM SCT250=

USA.gov is the U.S. government's official web portal to all federal, state and local government web resources and services.